Latest Coastal Weather Observations for Mallacoota

IDV60701

Issued at 4:02 pm EST Friday 1 July 2016 (issued every 10 minutes, with the page automatically refreshed every 10 minutes)

About coastal observations | Map of coastal stations | Coastal observations for VIC | Marine services | Other Formats
Station Details ID: 084084 Name: MALLACOOTA Lat: -37.60 Lon: 149.73 Height: 22.0 m
Data from the previous 72 hours. | See also: Recent months at Mallacoota
Date/Time
EST
Temp
°C
Wind Pressure Rain since
9am
mm
Weather Cloud Vis
km
Sea
Height
m
Swell
Dir  Spd
kts
Gust
kts
hPa Trend Height
m
Period
s
Dir
01/04:00pm 12.3 WSW 9 17 1016.8 - 0.0 - - - - - - -
01/03:30pm 13.2 WSW 10 18 1016.3 - 0.0 - - - - - - -
01/03:00pm 13.0 WSW 12 19 1016.1 - 0.0 - - - - - - -
01/02:30pm 13.1 WSW 11 18 1015.9 - 0.0 - - - - - - -
01/02:00pm 13.0 WSW 11 19 1015.6 - 0.0 - - - - - - -
01/01:30pm 13.3 WSW 11 19 1015.0 - 0.0 - - - - - - -
01/01:00pm 12.0 W 11 18 1015.1 - 0.0 - - - - - - -
01/12:30pm 11.5 WSW 10 17 1015.3 - 0.0 - - - - - - -
01/12:00pm 12.0 W 9 16 1015.5 - 0.0 - - - - - - -
01/11:30am 11.0 W 11 18 1015.6 - 0.0 - - - - - - -
01/11:00am 11.1 W 9 18 1015.5 - 0.0 - - - - - - -
01/10:30am 11.3 WSW 12 19 1015.4 - 0.0 - - - - - - -
01/10:00am 10.1 WSW 10 18 1015.1 - 0.0 - - - - - - -
01/09:30am 10.1 W 11 19 1014.7 - 0.0 - - - - - - -
01/09:00am 9.3 WSW 10 18 1014.4 - 4.0 - - - - - - -
01/08:30am 8.9 W 9 16 1013.8 - 4.0 - - - - - - -
01/08:00am 8.1 WSW 8 14 1013.2 - 4.0 - - - - - - -
01/07:30am 7.9 WSW 8 14 1012.7 - 4.0 - - - - - - -
01/07:00am 7.7 W 7 11 1012.4 - 4.0 - - - - - - -
01/06:30am 7.7 W 6 9 1011.9 - 4.0 - - - - - - -
01/06:00am 7.6 W 5 8 1011.5 - 4.0 - - - - - - -
01/05:30am 7.5 W 6 10 1011.2 - 4.0 - - - - - - -
01/05:00am 7.4 WSW 6 8 1010.9 - 3.8 - - - - - - -
01/04:30am 7.5 WSW 6 10 1010.6 - 3.4 - - - - - - -
01/04:00am 7.5 W 6 10 1010.5 - 3.0 - - - - - - -
01/03:30am 7.5 W 7 11 1010.4 - 2.6 - - - - - - -
01/03:00am 7.7 W 9 17 1009.9 - 2.0 - - - - - - -
01/02:30am 7.6 W 8 16 1009.8 - 1.4 - - - - - - -
01/02:00am 7.3 W 5 8 1009.2 - 0.6 - - - - - - -
01/01:30am 7.6 WNW 6 7 1008.5 - 0.4 - - - - - - -
01/01:00am 8.1 NW 4 6 1008.5 - 0.2 - - - - - - -
01/12:30am 9.2 NW 6 8 1008.4 - 0.0 - - - - - - -
01/12:00am 8.5 NW 7 8 1008.1 - 0.0 - - - - - - -
 
Date/Time
EST
Temp
°C
Wind Pressure Rain since
9am
mm
Weather Cloud Vis
km
Sea
Height
m
Swell
Dir  Spd
kts
Gust
kts
hPa Trend Height
m
Period
s
Dir
30/11:30pm 8.3 NNW 6 9 1008.2 - 0.0 - - - - - - -
30/11:00pm 8.2 NW 5 6 1008.4 - 0.0 - - - - - - -
30/10:30pm 8.9 NNW 6 8 1008.7 - 0.0 - - - - - - -
30/10:00pm 8.6 NW 6 7 1008.9 - 0.0 - - - - - - -
30/09:30pm 8.4 NNW 5 6 1008.7 - 0.0 - - - - - - -
30/09:00pm 8.2 WNW 4 5 1008.8 - 0.0 - - - - - - -
30/08:30pm 8.5 NW 6 7 1008.7 - 0.0 - - - - - - -
30/08:00pm 8.2 NW 7 9 1008.8 - 0.0 - - - - - - -
30/07:30pm 7.2 NW 6 7 1008.8 - 0.0 - - - - - - -
30/07:00pm 8.1 NW 5 8 1008.3 - 0.0 - - - - - - -
30/06:30pm 8.2 NW 5 6 1008.7 - 0.0 - - - - - - -
30/06:00pm 8.1 NW 5 7 1008.5 - 0.0 - - - - - - -
30/05:30pm 8.0 N 5 8 1008.3 - 0.0 - - - - - - -
30/05:00pm 7.8 NW 1 3 1008.7 - 0.0 - - - - - - -
30/04:30pm 7.9 WNW 4 5 1008.3 - 0.0 - - - - - - -
30/04:00pm 8.3 NNW 6 9 1008.3 - 0.0 - - - - - - -
30/03:30pm 8.2 NW 6 8 1008.8 - 0.0 - - - - - - -
30/03:00pm 7.7 N 6 9 1008.7 - 0.0 - - - - - - -
30/02:30pm 8.4 N 5 7 1009.5 - 0.0 - - - - - - -
30/02:00pm 8.1 W 4 6 1010.0 - 0.0 - - - - - - -
30/01:30pm 8.1 N 1 3 1010.4 - 0.0 - - - - - - -
30/01:00pm 9.0 N 3 5 1010.8 - 0.0 - - - - - - -
30/12:30pm 10.1 N 5 7 1011.5 - 0.0 - - - - - - -
30/12:00pm 10.7 NW 5 9 1012.1 - 0.0 - - - - - - -
30/11:30am 10.1 N 7 9 1012.9 - 0.0 - - - - - - -
30/11:00am 10.9 NNW 7 10 1013.7 - 0.0 - - - - - - -
30/10:30am 8.9 NW 6 10 1014.1 - 0.0 - - - - - - -
30/10:00am 8.7 NW 6 9 1014.2 - 0.0 - - - - - - -
30/09:30am 8.5 NW 6 9 1014.6 - 0.0 - - - - - - -
30/09:00am 8.5 NW 7 8 1014.7 - 0.0 - - - - - - -
30/08:30am 8.2 NNW 6 9 1014.8 - 0.0 - - - - - - -
30/08:00am 8.5 NNW 9 12 1015.3 - 0.0 - - - - - - -
30/07:30am 8.4 NNW 8 12 1015.5 - 0.0 - - - - - - -
30/07:00am 8.6 NNW 8 10 1015.6 - 0.0 - - - - - - -
30/06:30am 6.2 N 5 7 1015.8 - 0.0 - - - - - - -
30/06:00am 8.4 NNW 8 12 1016.0 - 0.0 - - - - - - -
30/05:30am 8.2 NNW 7 9 1016.3 - 0.0 - - - - - - -
30/05:00am 7.5 NNW 5 6 1016.5 - 0.0 - - - - - - -
30/04:30am 8.7 NNW 5 6 1016.6 - 0.0 - - - - - - -
30/04:00am 8.2 NW 4 5 1016.8 - 0.0 - - - - - - -
30/03:30am 9.1 NNW 4 7 1016.9 - 0.0 - - - - - - -
30/03:00am 9.0 N 4 7 1017.2 - 0.0 - - - - - - -
30/02:30am 9.2 N 5 7 1017.6 - 0.0 - - - - - - -
30/02:00am 9.8 N 6 9 1018.1 - 0.0 - - - - - - -
30/01:30am 9.4 NNW 4 8 1018.4 - 0.0 - - - - - - -
30/01:00am 8.0 N 4 7 1019.1 - 0.0 - - - - - - -
30/12:30am 8.4 WNW 4 5 1019.7 - 0.0 - - - - - - -
30/12:00am 9.8 N 7 10 1020.2 - 0.0 - - - - - - -
 
Date/Time
EST
Temp
°C
Wind Pressure Rain since
9am
mm
Weather Cloud Vis
km
Sea
Height
m
Swell
Dir  Spd
kts
Gust
kts
hPa Trend Height
m
Period
s
Dir
29/11:30pm 8.6 N 6 8 1020.8 - 0.0 - - - - - - -
29/11:00pm 9.2 N 7 10 1021.2 - 0.0 - - - - - - -
29/10:30pm 8.6 N 7 9 1021.6 - 0.0 - - - - - - -
29/10:00pm 8.2 NNW 7 9 1022.2 - 0.0 - - - - - - -
29/09:30pm 8.1 NW 6 8 1022.5 - 0.0 - - - - - - -
29/09:00pm 8.0 NW 5 8 1023.0 - 0.0 - - - - - - -
29/08:30pm 7.9 NW 4 5 1023.2 - 0.0 - - - - - - -
29/08:00pm 7.9 NW 5 7 1023.7 - 0.0 - - - - - - -
29/07:30pm 9.0 NNW 7 8 1024.0 - 0.0 - - - - - - -
29/07:00pm 9.3 NW 6 8 1024.0 - 0.0 - - - - - - -
29/06:30pm 8.9 NW 5 7 1024.0 - 0.0 - - - - - - -
29/06:00pm 9.0 WNW 3 4 1024.0 - 0.0 - - - - - - -
29/05:30pm 9.2 W 3 4 1024.1 - 0.0 - - - - - - -
29/05:00pm 9.8 CALM 0 4 1024.1 - 0.0 - - - - - - -
29/04:30pm 11.7 SW 2 4 1024.3 - 0.0 - - - - - - -
29/04:00pm 14.7 SSW 4 5 1024.4 - 0.0 - - - - - - -
29/03:30pm 15.7 SW 4 6 1024.3 - 0.0 - - - - - - -
29/03:00pm 16.2 WSW 4 6 1024.4 - 0.0 - - - - - - -
29/02:30pm 16.6 WSW 5 10 1024.2 - 0.0 - - - - - - -
29/02:00pm 16.3 WSW 7 12 1024.2 - 0.0 - - - - - - -
29/01:30pm 16.7 WSW 6 9 1024.4 - 0.0 - - - - - - -
29/01:00pm 16.4 WSW 8 12 1024.6 - 0.0 - - - - - - -
29/12:30pm 16.1 SW 8 12 1025.1 - 0.0 - - - - - - -
29/12:00pm 15.9 WSW 8 12 1025.5 - 0.0 - - - - - - -
29/11:30am 15.8 W 6 10 1025.9 - 0.0 - - - - - - -
29/11:00am 15.3 WNW 5 8 1026.3 - 0.0 - - - - - - -
29/10:30am 14.1 WNW 5 7 1026.7 - 0.0 - - - - - - -
29/10:00am 12.5 WNW 6 9 1026.9 - 0.0 - - - - - - -
29/09:30am 11.1 WNW 6 9 1026.7 - 0.0 - - - - - - -
29/09:00am 9.5 NW 6 8 1026.6 - 0.0 - - - - - - -
29/08:30am 8.2 NW 7 9 1026.3 - 0.0 - - - - - - -
29/08:00am 6.5 NW 6 8 1026.1 - 0.0 - - - - - - -
29/07:30am 5.7 NW 7 9 1025.9 - 0.0 - - - - - - -
29/07:00am 5.6 NW 6 8 1025.6 - 0.0 - - - - - - -
29/06:30am 5.4 NW 5 7 1025.3 - 0.0 - - - - - - -
29/06:00am 5.3 WNW 6 9 1025.3 - 0.0 - - - - - - -
29/05:30am 5.4 NW 5 7 1025.0 - 0.0 - - - - - - -
29/05:00am 6.2 WNW 6 9 1024.9 - 0.0 - - - - - - -
29/04:30am 6.3 WNW 6 9 1024.6 - 0.0 - - - - - - -
29/04:00am 4.6 NW 5 7 1024.5 - 0.0 - - - - - - -
29/03:30am 5.3 NW 6 9 1024.5 - 0.0 - - - - - - -
29/03:00am 5.7 NW 5 8 1024.7 - 0.0 - - - - - - -
29/02:30am 5.5 NW 5 7 1024.8 - 0.0 - - - - - - -
29/02:00am 6.0 NW 5 7 1024.7 - 0.0 - - - - - - -
29/01:30am 5.7 NW 5 7 1024.8 - 0.0 - - - - - - -
29/01:00am 5.9 WNW 5 6 1024.7 - 0.0 - - - - - - -
29/12:30am 7.7 WNW 5 8 1024.8 - 0.0 - - - - - - -
29/12:00am 6.2 NW 5 7 1024.9 - 0.0 - - - - - - -
 
Date/Time
EST
Temp
°C
Wind Pressure Rain since
9am
mm
Weather Cloud Vis
km
Sea
Height
m
Swell
Dir  Spd
kts
Gust
kts
hPa Trend Height
m
Period
s
Dir
28/11:30pm 7.1 NW 4 7 1025.0 - 0.0 - - - - - - -
28/11:00pm 8.0 WNW 5 7 1024.9 - 0.0 - - - - - - -
28/10:30pm 7.6 WNW 5 8 1024.8 - 0.0 - - - - - - -
28/10:00pm 7.3 WNW 5 8 1025.0 - 0.0 - - - - - - -
28/09:30pm 6.2 NW 5 8 1025.0 - 0.0 - - - - - - -
28/09:00pm 6.5 NW 5 7 1024.9 - 0.0 - - - - - - -
28/08:30pm 6.9 NW 6 7 1024.6 - 0.0 - - - - - - -
28/08:00pm 7.3 WNW 5 6 1024.4 - 0.0 - - - - - - -
28/07:30pm 7.9 WNW 4 5 1024.3 - 0.0 - - - - - - -
28/07:00pm 8.5 WNW 5 7 1024.1 - 0.0 - - - - - - -
28/06:30pm 9.0 WNW 5 6 1023.9 - 0.0 - - - - - - -
28/06:00pm 9.2 WNW 4 5 1023.7 - 0.0 - - - - - - -
28/05:30pm 9.1 WNW 4 5 1023.2 - 0.0 - - - - - - -
28/05:00pm 10.8 W 3 5 1023.1 - 0.0 - - - - - - -
28/04:30pm 12.5 WSW 4 6 1023.0 - 0.0 - - - - - - -

Other Formats:

Comma delimited format used in spreadsheet applications
http://www.bom.gov.au/fwo/IDV60701/IDV60701.94935.axf

JavaScript Object Notation format (JSON) in row-major order
http://www.bom.gov.au/fwo/IDV60701/IDV60701.94935.json